createdAt,value
2022-08-01T00:00:37.372Z,7.90
2022-08-01T00:01:37.377Z,8.30
2022-08-01T00:02:37.581Z,8.20
2022-08-01T00:03:37.373Z,7.70
2022-08-01T00:04:37.371Z,7.30
2022-08-01T00:05:37.373Z,7.60
2022-08-01T00:06:37.374Z,8.10
2022-08-01T00:07:37.376Z,7.40
2022-08-01T00:08:37.371Z,8.00
2022-08-01T00:09:37.371Z,7.80
2022-08-01T00:10:37.367Z,8.00
2022-08-01T00:11:37.370Z,8.40
2022-08-01T00:12:37.370Z,8.00
2022-08-01T00:13:37.367Z,8.10
2022-08-01T00:14:37.366Z,8.00
2022-08-01T00:15:37.569Z,7.80
2022-08-01T00:16:37.365Z,7.90
2022-08-01T00:17:37.367Z,7.90
2022-08-01T00:18:37.367Z,6.70
2022-08-01T00:19:37.367Z,7.50
2022-08-01T00:20:37.364Z,7.40
2022-08-01T00:21:37.366Z,8.10
2022-08-01T00:22:37.365Z,7.60
2022-08-01T00:23:37.366Z,7.50
2022-08-01T00:24:37.363Z,7.40
2022-08-01T00:25:37.369Z,7.70
2022-08-01T00:26:37.367Z,7.80
2022-08-01T00:27:37.602Z,8.00
2022-08-01T00:28:37.363Z,7.90
2022-08-01T00:30:11.812Z,7.40
2022-08-01T00:30:37.366Z,7.70
2022-08-01T00:31:37.364Z,7.20
2022-08-01T00:32:37.363Z,7.30
2022-08-01T00:33:37.364Z,7.60
2022-08-01T00:34:37.360Z,7.30
2022-08-01T00:35:37.362Z,7.50
2022-08-01T00:36:37.362Z,7.50
2022-08-01T00:37:37.362Z,7.70
2022-08-01T00:38:37.361Z,7.60
2022-08-01T00:39:37.368Z,8.00
2022-08-01T00:40:37.364Z,7.70
2022-08-01T00:41:37.365Z,8.10
2022-08-01T00:42:42.948Z,7.90
2022-08-01T00:43:37.363Z,8.40
2022-08-01T00:44:37.366Z,7.80
2022-08-01T00:45:37.367Z,8.40
2022-08-01T00:46:37.363Z,8.90
2022-08-01T00:47:37.368Z,8.40
2022-08-01T00:48:37.357Z,9.30
2022-08-01T00:49:37.428Z,9.70
2022-08-01T00:50:37.359Z,10.20
2022-08-01T00:51:37.360Z,10.90
2022-08-01T00:52:37.356Z,9.50
2022-08-01T00:53:51.380Z,10.10
2022-08-01T00:54:37.356Z,10.70
2022-08-01T00:55:37.361Z,10.40
2022-08-01T00:56:37.355Z,10.70
2022-08-01T00:58:01.429Z,10.30
2022-08-01T00:58:37.353Z,10.80
2022-08-01T00:59:37.355Z,10.60
2022-08-01T01:00:52.829Z,10.10
2022-08-01T01:01:39.239Z,10.00
2022-08-01T01:02:37.355Z,10.20
2022-08-01T01:03:57.939Z,10.20
2022-08-01T01:04:37.353Z,10.50
2022-08-01T01:05:37.692Z,10.70
2022-08-01T01:06:37.353Z,10.40
2022-08-01T01:07:37.355Z,10.70
2022-08-01T01:08:37.350Z,12.00
2022-08-01T01:09:37.351Z,10.50
2022-08-01T01:10:37.350Z,10.70
2022-08-01T01:11:37.358Z,10.90
2022-08-01T01:12:39.115Z,10.90
2022-08-01T01:13:50.276Z,10.50
2022-08-01T01:14:37.353Z,11.30
2022-08-01T01:15:37.804Z,11.50
2022-08-01T01:16:37.347Z,11.30
2022-08-01T01:17:50.516Z,11.10
2022-08-01T01:18:37.348Z,13.10
2022-08-01T01:19:37.348Z,11.60
2022-08-01T01:20:37.345Z,11.40
2022-08-01T01:21:37.345Z,12.10
2022-08-01T01:22:37.344Z,11.60
2022-08-01T01:23:37.346Z,11.40
2022-08-01T01:24:37.346Z,11.40
2022-08-01T01:25:37.344Z,11.90
2022-08-01T01:26:37.344Z,11.90
2022-08-01T01:27:37.348Z,11.00
2022-08-01T01:28:37.343Z,11.00
2022-08-01T01:30:00.050Z,12.80
2022-08-01T01:30:37.340Z,12.60
2022-08-01T01:31:37.346Z,12.90
2022-08-01T01:32:37.338Z,12.10
2022-08-01T01:33:37.341Z,11.70
2022-08-01T01:34:37.342Z,11.50
2022-08-01T01:35:37.344Z,11.90
2022-08-01T01:36:37.339Z,12.20
2022-08-01T01:37:37.339Z,11.60
2022-08-01T01:38:37.337Z,11.50
2022-08-01T01:39:37.337Z,11.20
2022-08-01T01:40:37.333Z,11.80
2022-08-01T01:41:37.336Z,11.30
2022-08-01T01:42:37.333Z,11.80
2022-08-01T01:43:37.340Z,11.90
2022-08-01T01:44:37.332Z,12.60
2022-08-01T01:45:37.333Z,11.90
2022-08-01T01:46:37.331Z,12.00
2022-08-01T01:47:37.335Z,11.90
2022-08-01T01:48:37.330Z,11.70
2022-08-01T01:49:37.419Z,12.00
2022-08-01T01:50:37.329Z,12.70
2022-08-01T01:51:37.328Z,11.50
2022-08-01T01:52:37.335Z,11.70
2022-08-01T01:53:37.331Z,11.80
2022-08-01T01:54:37.326Z,11.60
2022-08-01T01:55:49.264Z,12.30
2022-08-01T01:56:37.325Z,11.20
2022-08-01T01:57:37.328Z,11.40
2022-08-01T01:58:37.326Z,11.60
2022-08-01T01:59:37.335Z,11.40
2022-08-01T02:00:37.325Z,11.00
2022-08-01T02:01:58.910Z,11.10
2022-08-01T02:02:37.397Z,10.90
2022-08-01T02:03:37.324Z,11.00
2022-08-01T02:04:37.327Z,10.90
2022-08-01T02:05:37.322Z,11.30
2022-08-01T02:06:37.324Z,11.40
2022-08-01T02:07:37.323Z,10.70
2022-08-01T02:08:37.321Z,11.60
2022-08-01T02:09:37.323Z,11.50
2022-08-01T02:10:37.320Z,11.30
2022-08-01T02:11:37.325Z,11.30
2022-08-01T02:12:37.325Z,11.60
2022-08-01T02:13:37.318Z,11.40
2022-08-01T02:14:37.326Z,12.80
2022-08-01T02:15:37.577Z,11.70
2022-08-01T02:16:37.320Z,12.50
2022-08-01T02:17:37.333Z,11.50
2022-08-01T02:18:37.315Z,12.20
2022-08-01T02:19:38.514Z,11.30
2022-08-01T02:20:37.313Z,11.60
2022-08-01T02:21:37.312Z,11.70
2022-08-01T02:22:37.314Z,11.10
2022-08-01T02:23:37.317Z,10.70
2022-08-01T02:24:37.309Z,11.50
2022-08-01T02:25:37.329Z,11.10
2022-08-01T02:26:37.312Z,10.30
2022-08-01T02:27:37.309Z,10.70
2022-08-01T02:28:37.309Z,10.70
2022-08-01T02:29:37.313Z,10.70
2022-08-01T02:30:37.307Z,10.50
2022-08-01T02:31:37.308Z,10.40
2022-08-01T02:32:37.308Z,10.60
2022-08-01T02:33:37.305Z,10.60
2022-08-01T02:34:37.309Z,10.60
2022-08-01T02:36:30.585Z,10.30
2022-08-01T02:36:37.304Z,10.80
2022-08-01T02:37:37.308Z,10.70
2022-08-01T02:38:37.301Z,10.90
2022-08-01T02:39:37.306Z,10.60
2022-08-01T02:40:37.303Z,9.50
2022-08-01T02:41:37.300Z,10.00
2022-08-01T02:42:37.305Z,10.00
2022-08-01T02:43:37.302Z,10.20
2022-08-01T02:44:37.300Z,9.50
2022-08-01T02:45:37.299Z,9.00
2022-08-01T02:46:37.329Z,9.10
2022-08-01T02:47:37.299Z,9.50
2022-08-01T02:48:37.300Z,9.10
2022-08-01T02:49:37.533Z,9.00
2022-08-01T02:50:37.297Z,9.20
2022-08-01T02:51:37.300Z,9.20
2022-08-01T02:52:37.294Z,9.70
2022-08-01T02:53:39.074Z,9.20
2022-08-01T02:54:37.297Z,9.50
2022-08-01T02:55:37.300Z,9.60
2022-08-01T02:56:37.293Z,9.50
2022-08-01T02:57:47.814Z,9.60
2022-08-01T02:58:37.293Z,9.50
2022-08-01T02:59:37.295Z,9.00
2022-08-01T03:00:37.291Z,9.20
2022-08-01T03:01:37.338Z,9.20
2022-08-01T03:02:37.291Z,9.80
2022-08-01T03:03:37.291Z,10.00
2022-08-01T03:04:37.289Z,9.90
2022-08-01T03:05:37.289Z,10.50
2022-08-01T03:06:37.294Z,11.50
2022-08-01T03:07:39.047Z,11.50
2022-08-01T03:08:37.292Z,13.20
2022-08-01T03:09:37.292Z,12.10
2022-08-01T03:10:37.291Z,11.80
2022-08-01T03:11:37.288Z,12.50
2022-08-01T03:12:37.287Z,12.20
2022-08-01T03:13:37.290Z,12.00
2022-08-01T03:14:37.289Z,11.70
2022-08-01T03:15:37.489Z,11.80
2022-08-01T03:16:37.287Z,11.00
2022-08-01T03:17:37.291Z,11.20
2022-08-01T03:18:37.296Z,12.00
2022-08-01T03:19:37.293Z,11.80
2022-08-01T03:20:37.283Z,12.30
2022-08-01T03:21:37.285Z,11.30
2022-08-01T03:22:37.286Z,12.30
2022-08-01T03:23:38.010Z,11.80
2022-08-01T03:24:37.286Z,11.90
2022-08-01T03:25:37.282Z,12.50
2022-08-01T03:26:37.284Z,12.30
2022-08-01T03:27:37.282Z,11.80
2022-08-01T03:28:37.283Z,12.20
2022-08-01T03:29:37.282Z,12.30
2022-08-01T03:31:37.287Z,12.00
2022-08-01T03:32:37.286Z,11.80
2022-08-01T03:33:37.283Z,11.60
2022-08-01T03:34:37.279Z,12.10
2022-08-01T03:35:37.279Z,12.10
2022-08-01T03:36:37.279Z,12.80
2022-08-01T03:37:37.730Z,14.60
2022-08-01T03:38:37.281Z,12.70
2022-08-01T03:39:37.277Z,12.60
2022-08-01T03:40:37.277Z,12.20
2022-08-01T03:41:37.275Z,12.20
2022-08-01T03:42:37.275Z,12.50
2022-08-01T03:43:37.277Z,13.40
2022-08-01T03:44:37.273Z,12.60
2022-08-01T03:45:37.274Z,13.00
2022-08-01T03:46:37.273Z,14.70
2022-08-01T03:47:41.945Z,13.90
2022-08-01T03:48:37.275Z,14.30
2022-08-01T03:49:37.357Z,13.80
2022-08-01T03:50:37.274Z,13.20
2022-08-01T03:51:37.275Z,14.20
2022-08-01T03:52:37.272Z,14.30
2022-08-01T03:53:37.270Z,15.10
2022-08-01T03:54:37.270Z,14.80
2022-08-01T03:55:37.268Z,14.50
2022-08-01T03:56:37.271Z,15.40
2022-08-01T03:57:37.290Z,14.60
2022-08-01T03:58:37.271Z,16.10
2022-08-01T03:59:37.278Z,16.40
2022-08-01T04:00:37.270Z,15.50
2022-08-01T04:01:37.376Z,15.20
2022-08-01T04:02:37.274Z,17.40
2022-08-01T04:03:41.836Z,17.90
2022-08-01T04:04:37.272Z,17.40
2022-08-01T04:05:37.264Z,20.10
2022-08-01T04:06:37.265Z,17.30
2022-08-01T04:07:37.264Z,17.90
2022-08-01T04:08:37.266Z,20.00
2022-08-01T04:09:37.264Z,19.40
2022-08-01T04:10:37.265Z,19.10
2022-08-01T04:11:37.262Z,20.00
2022-08-01T04:12:37.268Z,21.50
2022-08-01T04:13:38.301Z,19.60
2022-08-01T04:14:37.260Z,19.40
2022-08-01T04:15:37.609Z,18.50
2022-08-01T04:16:37.260Z,18.80
2022-08-01T04:17:37.256Z,17.80
2022-08-01T04:18:37.259Z,19.10
2022-08-01T04:19:37.257Z,18.30
2022-08-01T04:20:37.256Z,18.10
2022-08-01T04:21:37.256Z,18.30
2022-08-01T04:22:37.587Z,19.40
2022-08-01T04:23:37.253Z,21.00
2022-08-01T04:24:37.256Z,22.50
2022-08-01T04:25:37.254Z,20.80
2022-08-01T04:26:37.252Z,21.60
2022-08-01T04:27:48.553Z,22.20
2022-08-01T04:28:37.256Z,22.20
2022-08-01T04:29:37.249Z,21.30
2022-08-01T04:30:37.255Z,21.20
2022-08-01T04:31:37.253Z,20.30
2022-08-01T04:32:37.248Z,20.80
2022-08-01T04:33:37.248Z,20.80
2022-08-01T04:34:37.253Z,21.30
2022-08-01T04:36:02.612Z,20.80
2022-08-01T04:36:37.247Z,20.50
2022-08-01T04:37:37.249Z,22.40
2022-08-01T04:38:37.250Z,20.90
2022-08-01T04:39:50.214Z,20.40
2022-08-01T04:40:37.247Z,20.60
2022-08-01T04:41:37.245Z,20.50
2022-08-01T04:42:37.247Z,19.00
2022-08-01T04:43:37.243Z,20.30
2022-08-01T04:44:37.245Z,20.20
2022-08-01T04:45:37.252Z,20.90
2022-08-01T04:46:37.241Z,19.70
2022-08-01T04:47:37.240Z,19.00
2022-08-01T04:48:37.243Z,18.20
2022-08-01T04:49:48.924Z,19.50
2022-08-01T04:50:37.240Z,19.50
2022-08-01T04:51:37.238Z,20.80
2022-08-01T04:52:37.240Z,22.70
2022-08-01T04:53:37.238Z,21.30
2022-08-01T04:54:37.241Z,21.90
2022-08-01T04:55:37.240Z,22.90
2022-08-01T04:56:37.237Z,22.90
2022-08-01T04:57:37.235Z,22.90
2022-08-01T04:58:37.246Z,22.20
2022-08-01T04:59:37.233Z,21.60
2022-08-01T05:00:37.237Z,22.80
2022-08-01T05:01:37.358Z,22.80
2022-08-01T05:02:37.242Z,22.00
2022-08-01T05:03:39.098Z,24.90
2022-08-01T05:04:37.237Z,22.80
2022-08-01T05:05:37.236Z,24.70
2022-08-01T05:06:37.236Z,23.20
2022-08-01T05:07:45.235Z,24.00
2022-08-01T05:08:37.385Z,24.00
2022-08-01T05:09:37.233Z,25.40
2022-08-01T05:10:37.229Z,26.60
2022-08-01T05:11:37.228Z,23.60
2022-08-01T05:12:37.227Z,25.60
2022-08-01T05:13:37.233Z,26.60
2022-08-01T05:14:37.231Z,26.80
2022-08-01T05:15:37.637Z,26.50
2022-08-01T05:16:37.230Z,25.90
2022-08-01T05:17:37.225Z,27.70
2022-08-01T05:18:37.225Z,26.50
2022-08-01T05:19:37.224Z,27.50
2022-08-01T05:20:37.226Z,28.60
2022-08-01T05:21:37.224Z,26.80
2022-08-01T05:22:37.225Z,27.50
2022-08-01T05:23:43.016Z,26.10
2022-08-01T05:24:37.222Z,27.40
2022-08-01T05:25:57.212Z,27.30
2022-08-01T05:26:37.221Z,27.60
2022-08-01T05:27:37.221Z,26.70
2022-08-01T05:28:37.223Z,27.70
2022-08-01T05:29:41.383Z,26.60
2022-08-01T05:30:37.231Z,29.40
2022-08-01T05:31:37.217Z,28.90
2022-08-01T05:32:37.216Z,26.40
2022-08-01T05:33:37.220Z,26.80
2022-08-01T05:34:37.218Z,27.50
2022-08-01T05:35:48.150Z,24.50
2022-08-01T05:36:37.216Z,26.50
2022-08-01T05:37:37.217Z,29.60
2022-08-01T05:38:37.216Z,29.60
2022-08-01T05:39:37.216Z,26.00
2022-08-01T05:40:37.214Z,25.60
2022-08-01T05:41:37.211Z,28.20
2022-08-01T05:42:37.214Z,27.90
2022-08-01T05:43:37.211Z,25.60
2022-08-01T05:44:37.214Z,26.20
2022-08-01T05:45:37.208Z,26.30
2022-08-01T05:46:37.211Z,26.60
2022-08-01T05:47:37.255Z,28.80
2022-08-01T05:48:37.212Z,27.30
2022-08-01T05:49:37.288Z,26.90
2022-08-01T05:50:37.210Z,26.90
2022-08-01T05:51:37.205Z,28.20
2022-08-01T05:52:37.204Z,28.20
2022-08-01T05:53:37.204Z,27.20
2022-08-01T05:54:37.209Z,30.50
2022-08-01T05:55:37.205Z,28.10
2022-08-01T05:56:37.202Z,26.90
2022-08-01T05:57:37.205Z,28.60
2022-08-01T05:58:37.206Z,28.30
2022-08-01T05:59:37.207Z,27.50
2022-08-01T06:00:37.202Z,28.60
2022-08-01T06:01:37.238Z,28.60
2022-08-01T06:02:37.280Z,29.60
2022-08-01T06:03:37.199Z,28.20
2022-08-01T06:04:37.198Z,29.50
2022-08-01T06:05:37.196Z,29.40
2022-08-01T06:06:37.196Z,28.60
2022-08-01T06:07:38.502Z,28.40
2022-08-01T06:08:37.199Z,29.40
2022-08-01T06:09:37.194Z,29.10
2022-08-01T06:10:37.194Z,27.20
2022-08-01T06:11:37.192Z,27.30
2022-08-01T06:12:37.193Z,28.50
2022-08-01T06:13:44.920Z,27.10
2022-08-01T06:14:37.193Z,27.20
2022-08-01T06:15:37.540Z,28.90
2022-08-01T06:16:37.190Z,27.30
2022-08-01T06:17:37.187Z,26.90
2022-08-01T06:18:37.193Z,28.80
2022-08-01T06:19:37.187Z,27.50
2022-08-01T06:20:37.188Z,26.40
2022-08-01T06:21:37.185Z,25.70
2022-08-01T06:22:37.188Z,27.00
2022-08-01T06:23:37.195Z,28.50
2022-08-01T06:24:37.183Z,29.00
2022-08-01T06:25:37.182Z,28.80
2022-08-01T06:26:37.186Z,27.30
2022-08-01T06:27:37.194Z,29.30
2022-08-01T06:28:37.181Z,26.60
2022-08-01T06:29:37.182Z,26.50
2022-08-01T06:30:37.181Z,28.40
2022-08-01T06:31:37.177Z,26.30
2022-08-01T06:32:37.176Z,27.50
2022-08-01T06:33:37.179Z,27.70
2022-08-01T06:34:37.199Z,29.70
2022-08-01T06:35:37.199Z,28.90
2022-08-01T06:36:37.174Z,31.20
2022-08-01T06:37:37.171Z,27.90
2022-08-01T06:38:37.172Z,29.10
2022-08-01T06:39:37.175Z,29.90
2022-08-01T06:40:37.177Z,30.70
2022-08-01T06:41:37.170Z,27.80
2022-08-01T06:42:37.172Z,28.00
2022-08-01T06:43:37.170Z,27.70
2022-08-01T06:44:37.177Z,29.00
2022-08-01T06:45:37.167Z,28.90
2022-08-01T06:46:37.173Z,28.80
2022-08-01T06:47:37.181Z,27.80
2022-08-01T06:48:37.165Z,29.50
2022-08-01T06:49:37.405Z,28.30
2022-08-01T06:50:37.168Z,30.70
2022-08-01T06:51:37.263Z,32.70
2022-08-01T06:52:37.163Z,28.80
2022-08-01T06:53:37.165Z,30.30
2022-08-01T06:54:37.263Z,28.40
2022-08-01T06:55:37.160Z,32.00
2022-08-01T06:56:37.159Z,29.30
2022-08-01T06:57:37.159Z,25.70
2022-08-01T06:58:37.158Z,28.60
2022-08-01T06:59:37.159Z,27.00
2022-08-01T07:00:37.218Z,26.80
2022-08-01T07:01:37.231Z,25.90
2022-08-01T07:02:37.158Z,26.80
2022-08-01T07:03:52.805Z,25.60
2022-08-01T07:04:37.154Z,26.00
2022-08-01T07:05:37.149Z,24.20
2022-08-01T07:06:37.151Z,24.70
2022-08-01T07:07:37.150Z,25.30
2022-08-01T07:08:37.148Z,24.40
2022-08-01T07:09:37.151Z,23.70
2022-08-01T07:10:37.148Z,26.70
2022-08-01T07:11:37.144Z,22.40
2022-08-01T07:12:37.144Z,22.60
2022-08-01T07:13:45.586Z,23.00
2022-08-01T07:14:37.142Z,20.30
2022-08-01T07:15:37.144Z,21.30
2022-08-01T07:16:37.141Z,20.10
2022-08-01T07:17:37.137Z,18.20
2022-08-01T07:18:37.141Z,16.80
2022-08-01T07:19:38.609Z,15.70
2022-08-01T07:20:51.109Z,15.80
2022-08-01T07:21:40.155Z,16.40
2022-08-01T07:22:37.282Z,15.20
2022-08-01T07:23:37.136Z,15.60
2022-08-01T07:24:37.132Z,16.10
2022-08-01T07:25:37.134Z,14.00
2022-08-01T07:26:37.132Z,13.20
2022-08-01T07:27:37.134Z,12.20
2022-08-01T07:28:37.131Z,12.40
2022-08-01T07:29:37.136Z,11.80
2022-08-01T07:30:37.131Z,12.10
2022-08-01T07:31:37.129Z,12.00
2022-08-01T07:32:37.125Z,11.30
2022-08-01T07:33:47.989Z,11.10
2022-08-01T07:34:37.133Z,11.70
2022-08-01T07:35:37.128Z,11.40
2022-08-01T07:36:37.126Z,11.50
2022-08-01T07:37:48.026Z,11.60
2022-08-01T07:38:37.123Z,12.60
2022-08-01T07:39:37.125Z,12.30
2022-08-01T07:40:37.124Z,11.20
2022-08-01T07:41:52.945Z,10.50
2022-08-01T07:42:37.122Z,10.00
2022-08-01T07:43:37.123Z,11.80
2022-08-01T07:44:37.119Z,11.10
2022-08-01T07:45:37.120Z,12.10
2022-08-01T07:46:37.121Z,12.10
2022-08-01T07:47:37.124Z,12.10
2022-08-01T07:48:37.117Z,11.60
2022-08-01T07:49:40.333Z,11.20
2022-08-01T07:50:37.114Z,10.10
2022-08-01T07:51:37.115Z,10.50
2022-08-01T07:52:37.111Z,10.80
2022-08-01T07:53:37.114Z,9.60
2022-08-01T07:54:37.135Z,9.70
2022-08-01T07:55:37.122Z,10.50
2022-08-01T07:56:37.115Z,10.40
2022-08-01T07:57:37.111Z,9.30
2022-08-01T07:58:37.114Z,8.60
2022-08-01T07:59:37.111Z,8.00
2022-08-01T08:00:37.106Z,7.60
2022-08-01T08:01:37.164Z,7.40
2022-08-01T08:02:37.108Z,8.80
2022-08-01T08:03:37.108Z,6.50
2022-08-01T08:04:37.106Z,7.70
2022-08-01T08:05:58.972Z,6.60
2022-08-01T08:06:37.106Z,6.90
2022-08-01T08:07:37.118Z,7.20
2022-08-01T08:08:37.106Z,6.90
2022-08-01T08:09:38.144Z,7.20
2022-08-01T08:10:37.104Z,6.50
2022-08-01T08:11:37.105Z,8.10
2022-08-01T08:12:37.104Z,7.30
2022-08-01T08:13:37.104Z,6.80
2022-08-01T08:14:37.103Z,7.00
2022-08-01T08:15:37.103Z,7.60
2022-08-01T08:16:37.098Z,7.50
2022-08-01T08:17:37.099Z,6.80
2022-08-01T08:18:37.098Z,7.40
2022-08-01T08:19:38.648Z,7.30
2022-08-01T08:20:37.097Z,7.40
2022-08-01T08:21:37.100Z,7.30
2022-08-01T08:22:37.105Z,8.30
2022-08-01T08:23:42.782Z,6.40
2022-08-01T08:24:37.097Z,6.10
2022-08-01T08:25:37.100Z,6.40
2022-08-01T08:26:37.097Z,6.20
2022-08-01T08:27:37.404Z,6.30
2022-08-01T08:28:37.099Z,6.80
2022-08-01T08:29:37.113Z,7.00
2022-08-01T08:30:37.099Z,7.00
2022-08-01T08:31:52.328Z,7.00
2022-08-01T08:32:37.095Z,6.60
2022-08-01T08:33:37.093Z,7.60
2022-08-01T08:34:37.095Z,8.60
2022-08-01T08:35:40.101Z,7.30
2022-08-01T08:36:37.121Z,6.80
2022-08-01T08:37:39.085Z,7.70
2022-08-01T08:38:37.096Z,6.50
2022-08-01T08:39:42.172Z,6.40
2022-08-01T08:40:37.101Z,6.80
2022-08-01T08:41:38.136Z,7.00
2022-08-01T08:42:37.097Z,6.30
2022-08-01T08:43:37.100Z,7.20
2022-08-01T08:44:37.094Z,7.80
2022-08-01T08:45:58.104Z,7.10
2022-08-01T08:46:37.099Z,9.20
2022-08-01T08:47:37.105Z,8.30
2022-08-01T08:48:37.102Z,7.90
2022-08-01T08:49:37.150Z,8.60
2022-08-01T08:50:37.113Z,8.40
2022-08-01T08:51:37.102Z,8.40
2022-08-01T08:52:37.100Z,8.30
2022-08-01T08:53:37.101Z,8.20
2022-08-01T08:54:37.102Z,8.20
2022-08-01T08:55:55.429Z,9.90
2022-08-01T08:56:37.098Z,9.20
2022-08-01T08:57:37.098Z,9.30
2022-08-01T08:58:37.102Z,10.10
2022-08-01T08:59:37.117Z,9.90
2022-08-01T09:00:37.110Z,9.80
2022-08-01T09:01:37.104Z,10.30
2022-08-01T09:02:37.103Z,10.30
2022-08-01T09:03:37.158Z,10.20
2022-08-01T09:04:37.101Z,9.70
2022-08-01T09:05:38.738Z,10.60
2022-08-01T09:06:37.102Z,9.50
2022-08-01T09:07:37.102Z,9.50
2022-08-01T09:08:37.103Z,9.10
2022-08-01T09:09:37.108Z,9.00
2022-08-01T09:10:37.112Z,7.80
2022-08-01T09:11:37.105Z,8.70
2022-08-01T09:12:37.100Z,8.90
2022-08-01T09:13:37.100Z,7.10
2022-08-01T09:14:37.101Z,6.00
2022-08-01T09:15:37.101Z,5.80
2022-08-01T09:16:37.110Z,5.80
2022-08-01T09:17:37.100Z,4.90
2022-08-01T09:18:37.101Z,5.90
2022-08-01T09:19:39.435Z,5.20
2022-08-01T09:20:37.097Z,5.30
2022-08-01T09:21:37.101Z,5.60
2022-08-01T09:22:37.098Z,6.30
2022-08-01T09:23:37.100Z,5.70
2022-08-01T09:24:37.099Z,6.00
2022-08-01T09:25:47.780Z,6.10
2022-08-01T09:26:37.100Z,5.90
2022-08-01T09:27:37.100Z,6.00
2022-08-01T09:28:37.098Z,5.80
2022-08-01T09:29:40.954Z,5.90
2022-08-01T09:30:37.104Z,5.10
2022-08-01T09:31:38.351Z,4.70
2022-08-01T09:32:37.120Z,6.20
2022-08-01T09:33:37.102Z,5.10
2022-08-01T09:34:37.101Z,5.30
2022-08-01T09:35:43.845Z,5.10
2022-08-01T09:36:37.101Z,5.20
2022-08-01T09:37:37.720Z,4.90
2022-08-01T09:38:37.103Z,4.40
2022-08-01T09:39:37.102Z,4.30
2022-08-01T09:40:37.103Z,4.60
2022-08-01T09:41:37.891Z,3.40
2022-08-01T09:42:37.103Z,3.80
2022-08-01T09:43:37.638Z,3.50
2022-08-01T09:44:42.005Z,3.40
2022-08-01T09:45:41.111Z,3.30
2022-08-01T09:46:37.104Z,3.60
2022-08-01T09:47:37.107Z,3.40
2022-08-01T09:48:37.102Z,4.40
2022-08-01T09:49:50.068Z,3.80
2022-08-01T09:50:37.101Z,6.00
2022-08-01T09:51:59.570Z,4.90
2022-08-01T09:52:37.102Z,4.80
2022-08-01T09:53:38.096Z,5.20
2022-08-01T09:54:37.102Z,4.70
2022-08-01T09:55:37.103Z,4.40
2022-08-01T09:56:37.104Z,5.60
2022-08-01T09:57:37.105Z,7.20
2022-08-01T09:58:37.119Z,5.60
2022-08-01T09:59:57.428Z,5.30
2022-08-01T10:00:45.302Z,5.60
2022-08-01T10:01:38.604Z,5.00
2022-08-01T10:02:37.110Z,5.30
2022-08-01T10:03:37.198Z,5.40
2022-08-01T10:04:37.112Z,5.30
2022-08-01T10:05:37.509Z,5.00
2022-08-01T10:06:37.116Z,5.30
2022-08-01T10:07:43.202Z,5.70
2022-08-01T10:08:37.104Z,5.80
2022-08-01T10:09:40.545Z,5.00
2022-08-01T10:10:37.444Z,4.60
2022-08-01T10:11:37.106Z,6.40
2022-08-01T10:12:37.107Z,6.50
2022-08-01T10:13:37.103Z,5.90
2022-08-01T10:14:37.106Z,6.10
2022-08-01T10:15:38.045Z,5.20
2022-08-01T10:16:37.103Z,5.50
2022-08-01T10:17:49.906Z,5.10
2022-08-01T10:18:37.101Z,5.40
2022-08-01T10:19:37.104Z,5.20
2022-08-01T10:20:37.100Z,4.40
2022-08-01T10:21:49.246Z,5.80
2022-08-01T10:22:37.100Z,4.60
2022-08-01T10:23:39.939Z,4.40
2022-08-01T10:24:37.099Z,4.60
2022-08-01T10:25:43.059Z,4.30
2022-08-01T10:26:37.102Z,4.70
2022-08-01T10:27:39.577Z,4.10
2022-08-01T10:28:39.314Z,3.70
2022-08-01T10:29:46.011Z,3.90
2022-08-01T10:30:37.118Z,3.90
2022-08-01T10:31:37.104Z,4.20
2022-08-01T10:32:39.516Z,4.40
2022-08-01T10:33:50.952Z,5.00
2022-08-01T10:34:37.099Z,4.20
2022-08-01T10:35:47.080Z,3.90
2022-08-01T10:36:37.100Z,4.00
2022-08-01T10:37:52.466Z,3.90
2022-08-01T10:38:37.269Z,4.20
2022-08-01T10:39:37.102Z,4.50
2022-08-01T10:40:37.213Z,8.50
2022-08-01T10:41:37.104Z,5.10
2022-08-01T10:42:37.102Z,5.00
2022-08-01T10:43:37.112Z,4.40
2022-08-01T10:44:37.099Z,4.40
2022-08-01T10:45:37.103Z,4.50
2022-08-01T10:46:37.100Z,4.10
2022-08-01T10:47:50.631Z,4.10
2022-08-01T10:48:37.102Z,3.80
2022-08-01T10:49:37.137Z,4.20
2022-08-01T10:50:37.107Z,3.70
2022-08-01T10:51:51.654Z,3.60
2022-08-01T10:52:39.639Z,3.90
2022-08-01T10:53:42.774Z,3.80
2022-08-01T10:54:37.102Z,4.20
2022-08-01T10:55:37.101Z,3.90
2022-08-01T10:56:37.099Z,4.10
2022-08-01T10:57:37.103Z,4.10
2022-08-01T10:58:42.900Z,3.80
2022-08-01T10:59:50.940Z,3.80
2022-08-01T11:00:37.102Z,3.50
2022-08-01T11:01:37.585Z,3.60
2022-08-01T11:02:37.101Z,3.40
2022-08-01T11:03:55.984Z,3.40
2022-08-01T11:04:37.101Z,3.90
2022-08-01T11:05:37.101Z,3.50
2022-08-01T11:06:37.103Z,3.50
2022-08-01T11:07:37.140Z,3.50
2022-08-01T11:08:37.101Z,3.60
2022-08-01T11:09:38.061Z,3.30
2022-08-01T11:10:37.102Z,3.30
2022-08-01T11:11:37.543Z,3.40
2022-08-01T11:12:37.100Z,3.00
2022-08-01T11:13:37.105Z,3.10
2022-08-01T11:14:55.325Z,3.30
2022-08-01T11:15:37.109Z,3.40
2022-08-01T11:16:37.114Z,3.10
2022-08-01T11:17:37.766Z,3.30
2022-08-01T11:18:37.600Z,3.70
2022-08-01T11:19:37.105Z,3.10
2022-08-01T11:20:41.766Z,3.10
2022-08-01T11:21:57.405Z,3.10
2022-08-01T11:22:37.104Z,3.50
2022-08-01T11:23:37.104Z,4.00
2022-08-01T11:24:37.103Z,3.50
2022-08-01T11:26:05.813Z,3.80
2022-08-01T11:26:37.103Z,3.30
2022-08-01T11:27:37.188Z,3.60
2022-08-01T11:28:40.580Z,2.90
2022-08-01T11:29:37.118Z,3.00
2022-08-01T11:30:37.114Z,3.30
2022-08-01T11:31:38.169Z,2.90
2022-08-01T11:32:58.659Z,3.00
2022-08-01T11:33:37.108Z,2.60
2022-08-01T11:34:37.110Z,3.30
2022-08-01T11:35:37.109Z,2.50
2022-08-01T11:37:03.356Z,2.20
2022-08-01T11:37:37.108Z,2.40
2022-08-01T11:38:37.255Z,2.00
2022-08-01T11:39:38.918Z,2.20
2022-08-01T11:40:37.107Z,2.30
2022-08-01T11:41:39.313Z,2.00
2022-08-01T11:42:37.107Z,3.10
2022-08-01T11:43:37.105Z,3.50
2022-08-01T11:44:37.110Z,2.30
2022-08-01T11:45:37.105Z,2.30
2022-08-01T11:46:37.115Z,2.30
2022-08-01T11:47:37.105Z,2.00
2022-08-01T11:48:37.104Z,2.00
2022-08-01T11:49:37.252Z,2.40
2022-08-01T11:50:37.149Z,1.90
2022-08-01T11:51:37.110Z,2.00
2022-08-01T11:52:37.161Z,1.90
2022-08-01T11:53:37.108Z,3.20
2022-08-01T11:54:37.111Z,1.90
2022-08-01T11:55:37.106Z,1.70
2022-08-01T11:56:40.215Z,1.80
2022-08-01T11:57:37.190Z,1.70
2022-08-01T11:58:37.109Z,2.00
2022-08-01T11:59:38.082Z,1.50
2022-08-01T12:00:37.109Z,1.50
2022-08-01T12:01:37.112Z,1.40
2022-08-01T12:02:37.233Z,1.40
2022-08-01T12:03:37.113Z,1.70
2022-08-01T12:04:37.109Z,1.80
2022-08-01T12:05:37.109Z,1.80
2022-08-01T12:06:37.111Z,1.90
2022-08-01T12:07:37.110Z,1.70
2022-08-01T12:08:37.111Z,1.70
2022-08-01T12:09:37.112Z,2.00
2022-08-01T12:10:37.110Z,1.80
2022-08-01T12:11:37.428Z,1.90
2022-08-01T12:12:37.115Z,1.90
2022-08-01T12:13:37.108Z,2.00
2022-08-01T12:14:37.116Z,1.80
2022-08-01T12:15:37.111Z,2.00
2022-08-01T12:16:37.109Z,2.20
2022-08-01T12:17:37.110Z,2.10
2022-08-01T12:18:37.116Z,2.30
2022-08-01T12:19:37.111Z,2.20
2022-08-01T12:20:38.065Z,2.10
2022-08-01T12:21:37.113Z,2.10
2022-08-01T12:22:37.122Z,2.20
2022-08-01T12:23:37.117Z,3.10
2022-08-01T12:24:37.120Z,2.20
2022-08-01T12:25:37.121Z,3.00
2022-08-01T12:26:37.112Z,2.60
2022-08-01T12:27:37.132Z,3.00
2022-08-01T12:28:37.137Z,3.00
2022-08-01T12:29:37.115Z,2.80
2022-08-01T12:30:37.121Z,2.60
2022-08-01T12:31:37.120Z,2.60
2022-08-01T12:32:37.114Z,3.00
2022-08-01T12:33:37.115Z,3.00
2022-08-01T12:34:37.116Z,3.10
2022-08-01T12:35:37.112Z,2.60
2022-08-01T12:36:37.116Z,2.80
2022-08-01T12:37:37.117Z,3.10
2022-08-01T12:38:37.114Z,2.80
2022-08-01T12:39:38.387Z,3.00
2022-08-01T12:40:38.242Z,3.20
2022-08-01T12:41:37.115Z,3.70
2022-08-01T12:42:37.116Z,3.00
2022-08-01T12:43:37.114Z,2.80
2022-08-01T12:44:37.116Z,2.90
2022-08-01T12:45:37.113Z,2.60
2022-08-01T12:46:39.541Z,2.80
2022-08-01T12:47:37.116Z,3.10
2022-08-01T12:48:37.120Z,2.60
2022-08-01T12:49:37.180Z,2.50
2022-08-01T12:50:37.123Z,2.50
2022-08-01T12:51:37.118Z,2.70
2022-08-01T12:52:37.121Z,2.40
2022-08-01T12:53:40.804Z,3.20
2022-08-01T12:54:37.121Z,2.40
2022-08-01T12:55:37.116Z,2.80
2022-08-01T12:56:37.118Z,2.70
2022-08-01T12:57:37.825Z,2.70
2022-08-01T12:58:37.118Z,3.00
2022-08-01T12:59:37.151Z,2.60
2022-08-01T13:00:37.122Z,2.60
2022-08-01T13:01:37.243Z,2.50
2022-08-01T13:02:37.123Z,2.70
2022-08-01T13:03:37.120Z,2.30
2022-08-01T13:04:37.882Z,2.50
2022-08-01T13:05:37.117Z,2.80